createdAt,value
2019-01-20T00:01:28.629Z,101717.70
2019-01-20T00:03:56.826Z,101716.34
2019-01-20T00:06:25.022Z,101714.72
2019-01-20T00:08:53.229Z,101726.61
2019-01-20T00:11:21.419Z,101720.38
2019-01-20T00:13:49.631Z,101718.20
2019-01-20T00:16:17.828Z,101722.85
2019-01-20T00:18:46.032Z,101716.91
2019-01-20T00:21:14.231Z,101718.78
2019-01-20T00:24:01.864Z,101722.85
2019-01-20T00:26:30.056Z,101726.67
2019-01-20T00:28:58.266Z,101730.22
2019-01-20T00:31:26.456Z,101726.09
2019-01-20T00:33:54.667Z,101727.69
2019-01-20T00:36:22.859Z,101727.09
2019-01-20T00:38:51.051Z,101728.91
2019-01-20T00:41:24.118Z,101726.44
2019-01-20T00:43:49.172Z,101727.44
2019-01-20T00:46:17.386Z,101724.59
2019-01-20T00:48:45.590Z,101729.42
2019-01-20T00:51:13.864Z,101727.78
2019-01-20T00:53:42.061Z,101726.43
2019-01-20T00:56:10.253Z,101725.77
2019-01-20T00:58:38.444Z,101718.88
2019-01-20T01:01:06.661Z,101719.27
2019-01-20T01:03:34.852Z,101716.69
2019-01-20T01:06:03.063Z,101714.66
2019-01-20T01:08:31.261Z,101713.76
2019-01-20T01:10:59.465Z,101713.23
2019-01-20T01:13:27.652Z,101708.65
2019-01-20T01:15:55.859Z,101715.26
2019-01-20T01:18:24.060Z,101710.42
2019-01-20T01:20:52.262Z,101713.42
2019-01-20T01:23:20.458Z,101707.48
2019-01-20T01:25:48.665Z,101706.12
2019-01-20T01:28:16.861Z,101711.78
2019-01-20T01:30:45.070Z,101711.13
2019-01-20T01:33:13.266Z,101712.64
2019-01-20T01:35:41.472Z,101715.83
2019-01-20T01:38:09.678Z,101714.64
2019-01-20T01:40:37.877Z,101710.78
2019-01-20T01:43:06.080Z,101711.34
2019-01-20T01:45:34.294Z,101715.50
2019-01-20T01:48:02.483Z,101712.64
2019-01-20T01:50:30.684Z,101718.45
2019-01-20T01:52:58.877Z,101714.80
2019-01-20T01:55:27.085Z,101722.48
2019-01-20T01:57:55.277Z,101723.45
2019-01-20T02:00:23.462Z,101723.92
2019-01-20T02:02:51.670Z,101723.84
2019-01-20T02:05:19.855Z,101723.56
2019-01-20T02:07:48.063Z,101717.83
2019-01-20T02:10:35.691Z,101715.05
2019-01-20T02:13:03.948Z,101719.42
2019-01-20T02:15:32.142Z,101716.20
2019-01-20T02:18:00.356Z,101715.65
2019-01-20T02:20:28.544Z,101707.31
2019-01-20T02:22:56.753Z,101708.13
2019-01-20T02:25:24.945Z,101717.75
2019-01-20T02:28:12.585Z,101711.86
2019-01-20T02:31:00.223Z,101714.25
2019-01-20T02:33:28.416Z,101714.25
2019-01-20T02:35:56.623Z,101718.78
2019-01-20T02:38:24.817Z,101723.88
2019-01-20T02:40:53.015Z,101718.47
2019-01-20T02:43:21.222Z,101719.54
2019-01-20T02:45:49.418Z,101723.05
2019-01-20T02:48:37.048Z,101727.06
2019-01-20T02:51:05.241Z,101727.06
2019-01-20T02:53:33.452Z,101723.75
2019-01-20T02:56:01.649Z,101733.15
2019-01-20T02:58:29.856Z,101730.36
2019-01-20T03:00:58.045Z,101718.70
2019-01-20T03:03:26.268Z,101721.56
2019-01-20T03:06:13.887Z,101721.20
2019-01-20T03:08:42.093Z,101721.20
2019-01-20T03:11:29.723Z,101721.66
2019-01-20T03:13:57.930Z,101721.66
2019-01-20T03:16:26.119Z,101713.70
2019-01-20T03:21:29.530Z,101713.09
2019-01-20T03:23:57.716Z,101721.43
2019-01-20T03:26:25.920Z,101719.09
2019-01-20T03:28:54.138Z,101710.81
2019-01-20T03:31:22.324Z,101711.13
2019-01-20T03:33:50.534Z,101710.30
2019-01-20T03:36:18.729Z,101707.83
2019-01-20T03:38:46.939Z,101712.09
2019-01-20T03:41:15.124Z,101703.09
2019-01-20T03:43:43.329Z,101701.66
2019-01-20T03:46:11.520Z,101704.23
2019-01-20T03:48:39.734Z,101704.98
2019-01-20T03:51:27.363Z,101692.20
2019-01-20T03:53:55.571Z,101692.20
2019-01-20T03:56:23.750Z,101698.20
2019-01-20T03:58:51.959Z,101697.38
2019-01-20T04:01:20.143Z,101698.95
2019-01-20T04:03:48.347Z,101692.34
2019-01-20T04:06:16.569Z,101696.17
2019-01-20T04:08:44.774Z,101694.02
2019-01-20T04:14:21.277Z,101699.11
2019-01-20T04:17:08.905Z,101700.99
2019-01-20T04:19:37.115Z,101700.99
2019-01-20T04:22:05.316Z,101702.11
2019-01-20T04:24:33.526Z,101706.48
2019-01-20T04:27:01.729Z,101705.13
2019-01-20T04:29:29.915Z,101702.43
2019-01-20T04:31:58.112Z,101711.66
2019-01-20T04:34:26.325Z,101706.85
2019-01-20T04:37:13.945Z,101711.28
2019-01-20T04:39:42.143Z,101711.28
2019-01-20T04:42:10.336Z,101700.61
2019-01-20T04:44:38.544Z,101712.19
2019-01-20T04:47:06.812Z,101710.89
2019-01-20T04:49:35.016Z,101713.98
2019-01-20T04:52:03.215Z,101711.33
2019-01-20T04:54:50.850Z,101713.12
2019-01-20T05:00:48.038Z,101711.34
2019-01-20T05:03:16.249Z,101709.52
2019-01-20T05:05:44.446Z,101712.06
2019-01-20T05:08:32.074Z,101717.99
2019-01-20T05:11:00.269Z,101717.99
2019-01-20T05:13:47.921Z,101710.94
2019-01-20T05:16:16.114Z,101710.94
2019-01-20T05:18:44.314Z,101716.24
2019-01-20T05:21:12.510Z,101719.94
2019-01-20T05:24:00.148Z,101722.93
2019-01-20T05:26:28.340Z,101722.93
2019-01-20T05:28:56.553Z,101720.58
2019-01-20T05:31:24.745Z,101726.67
2019-01-20T05:33:52.950Z,101720.57
2019-01-20T05:36:21.144Z,101722.84
2019-01-20T05:38:49.349Z,101722.88
2019-01-20T05:41:17.544Z,101722.59
2019-01-20T05:43:45.753Z,101723.95
2019-01-20T05:46:13.945Z,101720.17
2019-01-20T05:48:42.137Z,101717.53
2019-01-20T05:51:10.333Z,101718.97
2019-01-20T05:53:38.531Z,101721.95
2019-01-20T05:56:06.732Z,101721.44
2019-01-20T05:58:34.925Z,101720.32
2019-01-20T06:01:03.132Z,101725.50
2019-01-20T06:03:31.325Z,101724.38
2019-01-20T06:05:59.534Z,101721.67
2019-01-20T06:08:27.728Z,101717.53
2019-01-20T06:10:55.932Z,101721.84
2019-01-20T06:13:24.129Z,101723.47
2019-01-20T06:15:52.341Z,101724.83
2019-01-20T06:18:20.546Z,101720.32
2019-01-20T06:20:48.781Z,101717.38
2019-01-20T06:23:16.927Z,101722.86
2019-01-20T06:25:45.137Z,101725.86
2019-01-20T06:28:13.328Z,101722.38
2019-01-20T06:30:41.531Z,101732.70
2019-01-20T06:33:09.729Z,101727.52
2019-01-20T06:35:37.945Z,101732.46
2019-01-20T06:38:06.134Z,101733.30
2019-01-20T06:40:34.338Z,101728.78
2019-01-20T06:43:02.710Z,101728.06
2019-01-20T06:45:30.913Z,101734.04
2019-01-20T06:47:59.111Z,101732.20
2019-01-20T06:50:27.312Z,101741.45
2019-01-20T06:52:55.511Z,101739.30
2019-01-20T06:55:23.719Z,101741.84
2019-01-20T06:57:51.912Z,101742.47
2019-01-20T07:00:39.540Z,101746.38
2019-01-20T07:03:07.739Z,101755.09
2019-01-20T07:05:35.950Z,101754.92
2019-01-20T07:08:04.141Z,101754.41
2019-01-20T07:10:32.347Z,101762.85
2019-01-20T07:13:00.543Z,101763.97
2019-01-20T07:15:28.757Z,101765.01
2019-01-20T07:17:56.951Z,101767.72
2019-01-20T07:20:25.163Z,101774.22
2019-01-20T07:22:53.359Z,101774.66
2019-01-20T07:25:21.567Z,101780.56
2019-01-20T07:27:49.757Z,101786.75
2019-01-20T07:30:37.401Z,101790.73
2019-01-20T07:33:05.661Z,101795.16
2019-01-20T07:35:33.870Z,101791.48
2019-01-20T07:38:02.076Z,101798.27
2019-01-20T07:40:30.277Z,101798.62
2019-01-20T07:42:58.479Z,101803.56
2019-01-20T07:45:26.678Z,101807.70
2019-01-20T07:47:54.888Z,101805.42
2019-01-20T07:51:03.207Z,101805.77
2019-01-20T07:53:31.407Z,101807.79
2019-01-20T07:55:59.625Z,101801.36
2019-01-20T07:58:27.815Z,101804.08
2019-01-20T08:00:56.017Z,101802.27
2019-01-20T08:03:24.208Z,101803.45
2019-01-20T08:05:52.401Z,101809.16
2019-01-20T08:08:20.607Z,101816.25
2019-01-20T08:10:48.800Z,101820.67
2019-01-20T08:13:24.014Z,101814.31
2019-01-20T08:15:46.955Z,101822.35
2019-01-20T08:18:15.160Z,101823.81
2019-01-20T08:20:43.358Z,101828.89
2019-01-20T08:23:11.575Z,101830.91
2019-01-20T08:25:39.766Z,101831.50
2019-01-20T08:28:07.979Z,101838.36
2019-01-20T08:30:36.171Z,101834.36
2019-01-20T08:33:04.371Z,101835.81
2019-01-20T08:35:32.558Z,101840.27
2019-01-20T08:38:00.762Z,101841.84
2019-01-20T08:43:43.358Z,101846.80
2019-01-20T08:46:51.666Z,101845.98
2019-01-20T08:49:19.873Z,101846.58
2019-01-20T08:51:48.081Z,101855.12
2019-01-20T08:54:16.272Z,101856.13
2019-01-20T08:56:44.472Z,101857.89
2019-01-20T08:59:12.677Z,101864.91
2019-01-20T09:01:40.864Z,101869.47
2019-01-20T09:04:09.069Z,101869.94
2019-01-20T09:06:37.266Z,101877.59
2019-01-20T09:09:45.584Z,101876.88
2019-01-20T09:12:13.771Z,101876.63
2019-01-20T09:14:41.975Z,101883.03
2019-01-20T09:17:10.166Z,101879.14
2019-01-20T09:19:38.373Z,101875.25
2019-01-20T09:22:06.571Z,101876.33
2019-01-20T09:24:34.773Z,101881.64
2019-01-20T09:27:02.963Z,101889.42
2019-01-20T09:29:31.170Z,101881.94
2019-01-20T09:31:59.363Z,101881.47
2019-01-20T09:34:27.558Z,101882.52
2019-01-20T09:36:55.753Z,101878.31
2019-01-20T09:39:23.950Z,101876.70
2019-01-20T09:41:52.143Z,101879.15
2019-01-20T09:44:20.351Z,101886.03
2019-01-20T09:46:48.539Z,101887.31
2019-01-20T09:49:16.739Z,101884.21
2019-01-20T09:52:04.355Z,101888.43
2019-01-20T09:54:32.561Z,101888.56
2019-01-20T09:57:00.754Z,101886.59
2019-01-20T09:59:28.969Z,101888.08
2019-01-20T10:01:57.157Z,101890.68
2019-01-20T10:04:25.372Z,101891.84
2019-01-20T10:06:53.565Z,101888.13
2019-01-20T10:09:21.755Z,101894.53
2019-01-20T10:11:49.959Z,101892.49
2019-01-20T10:14:18.150Z,101896.70
2019-01-20T10:16:46.355Z,101903.03
2019-01-20T10:19:14.573Z,101901.41
2019-01-20T10:21:42.747Z,101901.41
2019-01-20T10:24:10.935Z,101895.91
2019-01-20T10:26:40.165Z,101904.81
2019-01-20T10:29:09.067Z,101905.95
2019-01-20T10:31:37.264Z,101910.99
2019-01-20T10:34:05.458Z,101910.11
2019-01-20T10:36:33.681Z,101919.18
2019-01-20T10:39:01.880Z,101922.33
2019-01-20T10:41:30.081Z,101916.47
2019-01-20T10:44:02.192Z,101921.22
2019-01-20T10:46:28.211Z,101920.02
2019-01-20T10:48:56.642Z,101916.34
2019-01-20T10:51:24.849Z,101912.83
2019-01-20T10:53:53.213Z,101918.27
2019-01-20T10:56:21.425Z,101917.80
2019-01-20T10:58:49.604Z,101916.23
2019-01-20T11:01:17.860Z,101916.50
2019-01-20T11:03:46.053Z,101920.14
2019-01-20T11:06:14.242Z,101921.25
2019-01-20T11:08:42.442Z,101918.78
2019-01-20T11:11:10.635Z,101924.81
2019-01-20T11:13:38.840Z,101923.28
2019-01-20T11:16:07.308Z,101916.07
2019-01-20T11:18:36.956Z,101923.63
2019-01-20T11:21:05.147Z,101926.48
2019-01-20T11:26:12.417Z,101923.84
2019-01-20T11:28:40.621Z,101922.48
2019-01-20T11:31:08.811Z,101917.86
2019-01-20T11:33:37.026Z,101914.94
2019-01-20T11:36:05.233Z,101921.31
2019-01-20T11:38:33.436Z,101925.10
2019-01-20T11:41:01.638Z,101918.34
2019-01-20T11:43:29.835Z,101918.75
2019-01-20T11:45:58.029Z,101921.13
2019-01-20T11:48:26.236Z,101925.56
2019-01-20T11:50:54.424Z,101924.67
2019-01-20T11:53:22.625Z,101927.18
2019-01-20T11:55:51.008Z,101927.98
2019-01-20T11:58:19.723Z,101925.63
2019-01-20T12:00:47.878Z,101924.72
2019-01-20T12:03:16.067Z,101926.80
2019-01-20T12:05:44.272Z,101921.83
2019-01-20T12:08:20.033Z,101925.04
2019-01-20T12:10:48.233Z,101927.08
2019-01-20T12:16:05.308Z,101915.24
2019-01-20T12:18:33.519Z,101918.91
2019-01-20T12:21:01.704Z,101919.02
2019-01-20T12:23:29.897Z,101919.87
2019-01-20T12:25:58.101Z,101915.77
2019-01-20T12:28:26.291Z,101926.44
2019-01-20T12:30:54.500Z,101926.47
2019-01-20T12:33:22.693Z,101925.66
2019-01-20T12:35:50.904Z,101922.44
2019-01-20T12:38:19.099Z,101920.30
2019-01-20T12:40:47.301Z,101927.44
2019-01-20T12:43:15.493Z,101922.25
2019-01-20T12:45:43.717Z,101911.84
2019-01-20T12:48:11.910Z,101909.95
2019-01-20T12:50:40.111Z,101914.06
2019-01-20T12:53:08.477Z,101916.54
2019-01-20T12:55:36.675Z,101914.34
2019-01-20T12:58:24.304Z,101911.64
2019-01-20T13:00:52.517Z,101915.80
2019-01-20T13:03:20.704Z,101915.27
2019-01-20T13:05:48.906Z,101910.89
2019-01-20T13:08:17.127Z,101911.16
2019-01-20T13:10:45.313Z,101911.16
2019-01-20T13:13:13.513Z,101908.63
2019-01-20T13:15:41.709Z,101913.27
2019-01-20T13:18:09.911Z,101920.08
2019-01-20T13:20:38.102Z,101916.22
2019-01-20T13:23:06.305Z,101922.46
2019-01-20T13:25:34.497Z,101924.06
2019-01-20T13:28:02.707Z,101932.75
2019-01-20T13:30:30.898Z,101930.77
2019-01-20T13:32:59.103Z,101932.11
2019-01-20T13:35:27.363Z,101937.23
2019-01-20T13:38:14.995Z,101929.72
2019-01-20T13:41:02.617Z,101929.11
2019-01-20T13:43:30.835Z,101932.65
2019-01-20T13:45:59.015Z,101927.45
2019-01-20T13:48:27.217Z,101928.53
2019-01-20T13:50:55.404Z,101929.03
2019-01-20T13:53:23.620Z,101926.25
2019-01-20T13:55:51.812Z,101932.77
2019-01-20T13:58:20.015Z,101937.38
2019-01-20T14:00:49.762Z,101935.08
2019-01-20T14:03:18.139Z,101939.36
2019-01-20T14:05:46.334Z,101935.23
2019-01-20T14:08:14.539Z,101945.52
2019-01-20T14:10:42.733Z,101944.05
2019-01-20T14:13:10.934Z,101950.77
2019-01-20T14:15:39.129Z,101948.80
2019-01-20T14:18:07.340Z,101947.09
2019-01-20T14:20:35.529Z,101954.72
2019-01-20T14:23:03.730Z,101956.53
2019-01-20T14:25:31.923Z,101962.27
2019-01-20T14:28:00.132Z,101963.28
2019-01-20T14:30:47.755Z,101961.12
2019-01-20T14:33:15.971Z,101963.05
2019-01-20T14:35:44.167Z,101964.34
2019-01-20T14:38:12.379Z,101964.94
2019-01-20T14:40:40.572Z,101976.48
2019-01-20T14:43:08.768Z,101968.93
2019-01-20T14:45:36.967Z,101968.16
2019-01-20T14:48:05.162Z,101974.75
2019-01-20T14:50:33.368Z,101969.07
2019-01-20T14:53:01.560Z,101970.70
2019-01-20T14:55:29.772Z,101974.66
2019-01-20T14:57:57.963Z,101974.67
2019-01-20T15:00:45.590Z,101978.09
2019-01-20T15:03:13.779Z,101985.67
2019-01-20T15:05:41.992Z,101987.22
2019-01-20T15:08:10.176Z,101992.08
2019-01-20T15:10:38.384Z,101989.95
2019-01-20T15:13:06.577Z,101991.58
2019-01-20T15:16:14.895Z,101994.22
2019-01-20T15:18:43.099Z,101995.45
2019-01-20T15:21:11.314Z,101989.34
2019-01-20T15:23:39.502Z,101996.33
2019-01-20T15:26:07.708Z,101998.34
2019-01-20T15:28:35.899Z,101999.88
2019-01-20T15:31:04.104Z,102000.38
2019-01-20T15:33:32.300Z,102003.63
2019-01-20T15:36:00.524Z,102004.05
2019-01-20T15:38:28.723Z,102007.12
2019-01-20T15:40:56.925Z,102001.09
2019-01-20T15:43:25.110Z,101992.86
2019-01-20T15:45:53.316Z,101999.57
2019-01-20T15:48:21.533Z,101995.95
2019-01-20T15:50:49.736Z,101996.13
2019-01-20T15:53:17.923Z,102000.33
2019-01-20T15:55:46.136Z,102011.28
2019-01-20T15:58:14.332Z,102012.47
2019-01-20T16:00:42.538Z,102010.27
2019-01-20T16:03:10.729Z,102013.93
2019-01-20T16:05:38.930Z,102011.03
2019-01-20T16:08:07.126Z,102012.39
2019-01-20T16:10:35.333Z,102013.09
2019-01-20T16:13:03.519Z,102010.34
2019-01-20T16:16:11.844Z,102013.83
2019-01-20T16:18:40.041Z,102020.31
2019-01-20T16:21:08.243Z,102023.27
2019-01-20T16:23:36.442Z,102022.61
2019-01-20T16:26:04.652Z,102022.09
2019-01-20T16:28:32.841Z,102028.53
2019-01-20T16:31:01.039Z,102029.51
2019-01-20T16:33:29.232Z,102034.31
2019-01-20T16:35:57.436Z,102037.06
2019-01-20T16:38:25.624Z,102039.23
2019-01-20T16:40:53.831Z,102047.59
2019-01-20T16:43:22.021Z,102048.15
2019-01-20T16:45:50.222Z,102050.70
2019-01-20T16:48:18.409Z,102040.11
2019-01-20T16:50:46.600Z,102038.33
2019-01-20T16:53:14.801Z,102045.78
2019-01-20T16:55:42.996Z,102048.31
2019-01-20T16:58:11.200Z,102052.03
2019-01-20T17:03:40.117Z,102054.34
2019-01-20T17:06:08.328Z,102058.41
2019-01-20T17:08:36.530Z,102053.50
2019-01-20T17:11:04.713Z,102057.65
2019-01-20T17:13:32.924Z,102053.08
2019-01-20T17:16:01.122Z,102056.91
2019-01-20T17:18:29.334Z,102055.87
2019-01-20T17:20:57.561Z,102054.52
2019-01-20T17:23:25.748Z,102061.45
2019-01-20T17:25:53.935Z,102057.21
2019-01-20T17:28:22.146Z,102060.98
2019-01-20T17:30:50.337Z,102065.34
2019-01-20T17:33:18.555Z,102069.50
2019-01-20T17:35:46.748Z,102068.95
2019-01-20T17:38:14.957Z,102071.87
2019-01-20T17:40:43.154Z,102072.47
2019-01-20T17:46:05.785Z,102072.02
2019-01-20T17:48:34.019Z,102077.66
2019-01-20T17:51:02.215Z,102073.75
2019-01-20T17:53:30.422Z,102078.13
2019-01-20T17:55:58.620Z,102085.52
2019-01-20T17:58:26.835Z,102082.16
2019-01-20T18:03:43.925Z,102085.31
2019-01-20T18:06:12.132Z,102087.78
2019-01-20T18:08:40.331Z,102091.09
2019-01-20T18:11:08.527Z,102094.13
2019-01-20T18:13:36.743Z,102095.64
2019-01-20T18:16:04.934Z,102096.91
2019-01-20T18:18:33.144Z,102092.40
2019-01-20T18:21:01.342Z,102098.66
2019-01-20T18:23:29.556Z,102099.41
2019-01-20T18:25:57.785Z,102100.02
2019-01-20T18:28:25.957Z,102101.66
2019-01-20T18:30:54.168Z,102109.59
2019-01-20T18:33:22.371Z,102104.97
2019-01-20T18:35:50.583Z,102108.39
2019-01-20T18:38:18.774Z,102107.98
2019-01-20T18:40:46.985Z,102112.06
2019-01-20T18:43:15.185Z,102115.47
2019-01-20T18:45:43.392Z,102119.69
2019-01-20T18:48:11.588Z,102115.63
2019-01-20T18:50:39.799Z,102119.74
2019-01-20T18:53:07.998Z,102117.64
2019-01-20T18:55:36.277Z,102120.95
2019-01-20T19:01:18.127Z,102129.77
2019-01-20T19:03:46.323Z,102131.71
2019-01-20T19:06:14.534Z,102136.76
2019-01-20T19:08:42.734Z,102136.16
2019-01-20T19:11:10.939Z,102136.16
2019-01-20T19:13:39.142Z,102134.42
2019-01-20T19:16:09.033Z,102141.66
2019-01-20T19:18:37.273Z,102139.32
2019-01-20T19:21:05.484Z,102137.63
2019-01-20T19:23:33.684Z,102139.27
2019-01-20T19:26:01.896Z,102141.73
2019-01-20T19:28:30.097Z,102140.39
2019-01-20T19:30:58.303Z,102139.58
2019-01-20T19:33:26.497Z,102149.36
2019-01-20T19:35:54.699Z,102148.20
2019-01-20T19:38:22.917Z,102148.06
2019-01-20T19:40:51.112Z,102146.48
2019-01-20T19:43:19.317Z,102155.54
2019-01-20T19:45:47.515Z,102160.36
2019-01-20T19:48:20.077Z,102154.84
2019-01-20T19:50:45.644Z,102150.31
2019-01-20T19:53:13.850Z,102157.55
2019-01-20T19:55:42.045Z,102159.17
2019-01-20T19:58:10.254Z,102159.40
2019-01-20T20:00:38.453Z,102157.58
2019-01-20T20:03:06.658Z,102156.53
2019-01-20T20:05:34.850Z,102150.96
2019-01-20T20:08:03.061Z,102154.41
2019-01-20T20:10:32.294Z,102164.77
2019-01-20T20:13:00.500Z,102169.66
2019-01-20T20:15:28.698Z,102168.98
2019-01-20T20:17:56.908Z,102166.64
2019-01-20T20:20:25.094Z,102171.08
2019-01-20T20:22:53.297Z,102175.46
2019-01-20T20:26:01.599Z,102170.79
2019-01-20T20:28:29.803Z,102171.23
2019-01-20T20:30:57.996Z,102175.45
2019-01-20T20:33:26.207Z,102175.32
2019-01-20T20:35:54.415Z,102182.23
2019-01-20T20:38:22.617Z,102188.40
2019-01-20T20:40:50.814Z,102199.77
2019-01-20T20:43:19.026Z,102200.89
2019-01-20T20:45:47.230Z,102206.17
2019-01-20T20:48:15.437Z,102199.86
2019-01-20T20:50:43.637Z,102205.97
2019-01-20T20:53:11.950Z,102208.45
2019-01-20T20:55:40.128Z,102201.91
2019-01-20T20:58:08.334Z,102211.69
2019-01-20T21:03:50.546Z,102218.47
2019-01-20T21:06:18.714Z,102220.14
2019-01-20T21:08:48.497Z,102220.89
2019-01-20T21:11:16.850Z,102222.77
2019-01-20T21:13:45.059Z,102214.34
2019-01-20T21:16:13.251Z,102215.84
2019-01-20T21:18:41.463Z,102213.88
2019-01-20T21:21:09.669Z,102218.47
2019-01-20T21:23:37.874Z,102215.76
2019-01-20T21:26:06.080Z,102212.73
2019-01-20T21:28:34.278Z,102204.96
2019-01-20T21:31:02.474Z,102211.37
2019-01-20T21:33:30.702Z,102206.92
2019-01-20T21:35:58.896Z,102217.97
2019-01-20T21:38:27.096Z,102218.86
2019-01-20T21:40:55.301Z,102221.33
2019-01-20T21:43:23.499Z,102213.79
2019-01-20T21:45:51.703Z,102222.71
2019-01-20T21:48:19.897Z,102220.56
2019-01-20T21:50:48.118Z,102223.63
2019-01-20T21:53:16.347Z,102227.45
2019-01-20T21:55:44.533Z,102233.61
2019-01-20T21:58:12.727Z,102228.80
2019-01-20T22:00:40.939Z,102233.48
2019-01-20T22:03:09.132Z,102233.25
2019-01-20T22:05:37.348Z,102232.83
2019-01-20T22:08:05.544Z,102225.21
2019-01-20T22:10:53.173Z,102227.70
2019-01-20T22:13:21.367Z,102226.44
2019-01-20T22:15:49.580Z,102234.34
2019-01-20T22:18:17.773Z,102240.08
2019-01-20T22:20:45.981Z,102241.20
2019-01-20T22:23:14.183Z,102249.63
2019-01-20T22:25:42.383Z,102240.75
2019-01-20T22:28:10.590Z,102250.23
2019-01-20T22:30:38.790Z,102250.23
2019-01-20T22:33:06.994Z,102251.08
2019-01-20T22:35:35.191Z,102251.83
2019-01-20T22:38:03.393Z,102245.27
2019-01-20T22:40:31.591Z,102246.31
2019-01-20T22:42:59.799Z,102239.53
2019-01-20T22:45:27.996Z,102242.38
2019-01-20T22:47:56.199Z,102237.09
2019-01-20T22:50:24.560Z,102240.25
2019-01-20T22:52:52.749Z,102239.87
2019-01-20T22:55:20.969Z,102240.38
2019-01-20T22:57:49.183Z,102245.80
2019-01-20T23:03:27.061Z,102255.05
2019-01-20T23:05:55.258Z,102244.83
2019-01-20T23:08:23.554Z,102251.83
2019-01-20T23:10:51.771Z,102246.31
2019-01-20T23:13:20.094Z,102249.48
2019-01-20T23:15:48.280Z,102254.58
2019-01-20T23:18:16.493Z,102261.58
2019-01-20T23:20:44.685Z,102267.83
2019-01-20T23:23:12.894Z,102271.58
2019-01-20T23:25:41.085Z,102269.70
2019-01-20T23:28:09.321Z,102266.16
2019-01-20T23:30:37.517Z,102268.47
2019-01-20T23:33:05.723Z,102278.70
2019-01-20T23:35:33.915Z,102286.59
2019-01-20T23:38:02.126Z,102277.22
2019-01-20T23:40:30.316Z,102271.06
2019-01-20T23:42:58.529Z,102274.37
2019-01-20T23:45:26.732Z,102267.61
2019-01-20T23:50:28.765Z,102253.09
2019-01-20T23:52:56.992Z,102253.83
2019-01-20T23:55:25.195Z,102250.19
2019-01-20T23:57:53.375Z,102256.05
